sensor_id;sensor_type;location;lat;lon;timestamp;temperature;humidity
5118;DHT22;2578;51.622;7.046;2023-04-15T00:00:29;5.10;99.90
5118;DHT22;2578;51.622;7.046;2023-04-15T00:02:54;5.30;99.90
5118;DHT22;2578;51.622;7.046;2023-04-15T00:05:21;5.40;99.90
5118;DHT22;2578;51.622;7.046;2023-04-15T00:07:46;5.50;99.90
5118;DHT22;2578;51.622;7.046;2023-04-15T00:10:12;5.60;99.90
5118;DHT22;2578;51.622;7.046;2023-04-15T00:12:39;5.70;99.90
5118;DHT22;2578;51.622;7.046;2023-04-15T00:15:05;5.50;99.90
5118;DHT22;2578;51.622;7.046;2023-04-15T00:17:31;5.50;99.90
5118;DHT22;2578;51.622;7.046;2023-04-15T00:19:56;5.50;99.90
5118;DHT22;2578;51.622;7.046;2023-04-15T00:22:24;5.60;99.90
5118;DHT22;2578;51.622;7.046;2023-04-15T00:24:52;5.50;99.90
5118;DHT22;2578;51.622;7.046;2023-04-15T00:27:18;5.50;99.90
5118;DHT22;2578;51.622;7.046;2023-04-15T00:29:43;5.50;99.90
5118;DHT22;2578;51.622;7.046;2023-04-15T00:32:09;5.40;99.90
5118;DHT22;2578;51.622;7.046;2023-04-15T00:34:35;5.40;99.90
5118;DHT22;2578;51.622;7.046;2023-04-15T00:37:01;5.30;99.90
5118;DHT22;2578;51.622;7.046;2023-04-15T00:39:27;5.30;99.90
5118;DHT22;2578;51.622;7.046;2023-04-15T00:41:52;5.30;99.90
5118;DHT22;2578;51.622;7.046;2023-04-15T00:44:19;5.40;99.90
5118;DHT22;2578;51.622;7.046;2023-04-15T00:46:47;5.30;99.90
5118;DHT22;2578;51.622;7.046;2023-04-15T00:49:15;5.30;99.90
5118;DHT22;2578;51.622;7.046;2023-04-15T00:51:41;5.30;99.90
5118;DHT22;2578;51.622;7.046;2023-04-15T00:54:07;5.30;99.90
5118;DHT22;2578;51.622;7.046;2023-04-15T00:56:35;5.30;99.90
5118;DHT22;2578;51.622;7.046;2023-04-15T00:59:03;5.20;99.90
5118;DHT22;2578;51.622;7.046;2023-04-15T01:01:29;5.10;99.90
5118;DHT22;2578;51.622;7.046;2023-04-15T01:03:56;5.00;99.90
5118;DHT22;2578;51.622;7.046;2023-04-15T01:06:25;5.00;99.90
5118;DHT22;2578;51.622;7.046;2023-04-15T01:08:54;5.00;99.90
5118;DHT22;2578;51.622;7.046;2023-04-15T01:11:20;5.00;99.90
5118;DHT22;2578;51.622;7.046;2023-04-15T01:13:49;4.90;99.90
5118;DHT22;2578;51.622;7.046;2023-04-15T01:16:15;4.70;99.90
5118;DHT22;2578;51.622;7.046;2023-04-15T01:18:41;4.70;99.90
5118;DHT22;2578;51.622;7.046;2023-04-15T01:21:07;4.60;99.90
5118;DHT22;2578;51.622;7.046;2023-04-15T01:23:36;4.60;99.90
5118;DHT22;2578;51.622;7.046;2023-04-15T01:26:04;4.50;99.90
5118;DHT22;2578;51.622;7.046;2023-04-15T01:28:33;4.50;99.90
5118;DHT22;2578;51.622;7.046;2023-04-15T01:31:13;4.40;99.90
5118;DHT22;2578;51.622;7.046;2023-04-15T01:33:40;4.40;99.90
5118;DHT22;2578;51.622;7.046;2023-04-15T01:36:07;4.30;99.90
5118;DHT22;2578;51.622;7.046;2023-04-15T01:38:34;4.30;99.90
5118;DHT22;2578;51.622;7.046;2023-04-15T01:41:00;4.30;99.90
5118;DHT22;2578;51.622;7.046;2023-04-15T01:43:26;4.20;99.90
5118;DHT22;2578;51.622;7.046;2023-04-15T01:45:52;3.90;99.90
5118;DHT22;2578;51.622;7.046;2023-04-15T01:48:18;3.80;99.90
5118;DHT22;2578;51.622;7.046;2023-04-15T01:50:44;3.60;99.90
5118;DHT22;2578;51.622;7.046;2023-04-15T01:53:10;3.50;99.90
5118;DHT22;2578;51.622;7.046;2023-04-15T01:55:36;3.50;99.90
5118;DHT22;2578;51.622;7.046;2023-04-15T01:58:02;3.50;99.90
5118;DHT22;2578;51.622;7.046;2023-04-15T02:00:28;3.40;99.90
5118;DHT22;2578;51.622;7.046;2023-04-15T02:02:54;3.30;99.90
5118;DHT22;2578;51.622;7.046;2023-04-15T02:05:19;3.30;99.90
5118;DHT22;2578;51.622;7.046;2023-04-15T02:07:45;3.30;99.90
5118;DHT22;2578;51.622;7.046;2023-04-15T02:10:11;3.30;99.90
5118;DHT22;2578;51.622;7.046;2023-04-15T02:12:40;3.40;99.90
5118;DHT22;2578;51.622;7.046;2023-04-15T02:15:07;3.30;99.90
5118;DHT22;2578;51.622;7.046;2023-04-15T02:17:34;3.30;99.90
5118;DHT22;2578;51.622;7.046;2023-04-15T02:20:00;3.40;99.90
5118;DHT22;2578;51.622;7.046;2023-04-15T02:22:25;3.20;99.90
5118;DHT22;2578;51.622;7.046;2023-04-15T02:24:52;3.20;99.90
5118;DHT22;2578;51.622;7.046;2023-04-15T02:27:17;3.20;99.90
5118;DHT22;2578;51.622;7.046;2023-04-15T02:29:44;3.30;99.90
5118;DHT22;2578;51.622;7.046;2023-04-15T02:32:10;4.90;99.90
5118;DHT22;2578;51.622;7.046;2023-04-15T02:34:37;2.00;99.90
5118;DHT22;2578;51.622;7.046;2023-04-15T02:37:06;3.20;99.90
5118;DHT22;2578;51.622;7.046;2023-04-15T02:39:32;3.30;99.90
5118;DHT22;2578;51.622;7.046;2023-04-15T02:41:57;3.30;99.90
5118;DHT22;2578;51.622;7.046;2023-04-15T02:44:24;3.20;99.90
5118;DHT22;2578;51.622;7.046;2023-04-15T02:46:50;3.30;99.90
5118;DHT22;2578;51.622;7.046;2023-04-15T02:49:17;3.40;99.90
5118;DHT22;2578;51.622;7.046;2023-04-15T02:51:43;3.40;99.90
5118;DHT22;2578;51.622;7.046;2023-04-15T02:54:17;3.40;99.90
5118;DHT22;2578;51.622;7.046;2023-04-15T02:56:42;3.50;99.90
5118;DHT22;2578;51.622;7.046;2023-04-15T02:59:08;3.50;99.90
5118;DHT22;2578;51.622;7.046;2023-04-15T03:01:33;3.60;99.90
5118;DHT22;2578;51.622;7.046;2023-04-15T03:03:59;3.60;99.90
5118;DHT22;2578;51.622;7.046;2023-04-15T03:06:25;3.70;99.90
5118;DHT22;2578;51.622;7.046;2023-04-15T03:08:51;3.70;99.90
5118;DHT22;2578;51.622;7.046;2023-04-15T03:11:17;3.70;99.90
5118;DHT22;2578;51.622;7.046;2023-04-15T03:13:43;3.60;99.90
5118;DHT22;2578;51.622;7.046;2023-04-15T03:16:08;3.50;99.90
5118;DHT22;2578;51.622;7.046;2023-04-15T03:18:34;3.40;99.90
5118;DHT22;2578;51.622;7.046;2023-04-15T03:21:00;3.40;99.90
5118;DHT22;2578;51.622;7.046;2023-04-15T03:23:26;3.30;99.90
5118;DHT22;2578;51.622;7.046;2023-04-15T03:25:52;3.40;99.90
5118;DHT22;2578;51.622;7.046;2023-04-15T03:28:20;3.40;99.90
5118;DHT22;2578;51.622;7.046;2023-04-15T03:30:46;3.40;99.90
5118;DHT22;2578;51.622;7.046;2023-04-15T03:33:11;3.30;99.90
5118;DHT22;2578;51.622;7.046;2023-04-15T03:35:37;3.30;99.90
5118;DHT22;2578;51.622;7.046;2023-04-15T03:38:02;3.00;99.90
5118;DHT22;2578;51.622;7.046;2023-04-15T03:40:28;3.30;99.90
5118;DHT22;2578;51.622;7.046;2023-04-15T03:42:54;3.30;99.90
5118;DHT22;2578;51.622;7.046;2023-04-15T03:45:20;3.10;99.90
5118;DHT22;2578;51.622;7.046;2023-04-15T03:47:45;3.10;99.90
5118;DHT22;2578;51.622;7.046;2023-04-15T03:50:11;3.10;99.90
5118;DHT22;2578;51.622;7.046;2023-04-15T03:52:37;4.00;99.90
5118;DHT22;2578;51.622;7.046;2023-04-15T03:55:02;3.10;99.90
5118;DHT22;2578;51.622;7.046;2023-04-15T03:57:28;3.10;99.90
5118;DHT22;2578;51.622;7.046;2023-04-15T03:59:54;3.10;99.90
5118;DHT22;2578;51.622;7.046;2023-04-15T04:02:19;3.10;99.90
5118;DHT22;2578;51.622;7.046;2023-04-15T04:04:45;3.20;99.90
5118;DHT22;2578;51.622;7.046;2023-04-15T04:07:15;3.30;99.90
5118;DHT22;2578;51.622;7.046;2023-04-15T04:09:41;3.50;99.90
5118;DHT22;2578;51.622;7.046;2023-04-15T04:12:07;3.60;99.90
5118;DHT22;2578;51.622;7.046;2023-04-15T04:14:33;3.60;99.90
5118;DHT22;2578;51.622;7.046;2023-04-15T04:16:58;3.70;99.90
5118;DHT22;2578;51.622;7.046;2023-04-15T04:19:24;3.90;99.90
5118;DHT22;2578;51.622;7.046;2023-04-15T04:21:51;3.90;99.90
5118;DHT22;2578;51.622;7.046;2023-04-15T04:24:16;4.00;99.90
5118;DHT22;2578;51.622;7.046;2023-04-15T04:26:42;4.10;99.90
5118;DHT22;2578;51.622;7.046;2023-04-15T04:29:07;4.20;99.90
5118;DHT22;2578;51.622;7.046;2023-04-15T04:31:33;4.20;99.90
5118;DHT22;2578;51.622;7.046;2023-04-15T04:33:59;4.20;99.90
5118;DHT22;2578;51.622;7.046;2023-04-15T04:36:24;4.20;99.90
5118;DHT22;2578;51.622;7.046;2023-04-15T04:38:50;4.20;99.90
5118;DHT22;2578;51.622;7.046;2023-04-15T04:41:17;4.20;99.90
5118;DHT22;2578;51.622;7.046;2023-04-15T04:43:42;4.20;99.90
5118;DHT22;2578;51.622;7.046;2023-04-15T04:46:08;4.00;99.90
5118;DHT22;2578;51.622;7.046;2023-04-15T04:48:34;4.00;99.90
5118;DHT22;2578;51.622;7.046;2023-04-15T04:51:00;3.90;99.90
5118;DHT22;2578;51.622;7.046;2023-04-15T04:53:26;3.90;99.90
5118;DHT22;2578;51.622;7.046;2023-04-15T04:55:52;4.10;99.90
5118;DHT22;2578;51.622;7.046;2023-04-15T04:58:18;3.20;99.90
5118;DHT22;2578;51.622;7.046;2023-04-15T05:00:43;2.90;99.90
5118;DHT22;2578;51.622;7.046;2023-04-15T05:03:09;2.80;99.90
5118;DHT22;2578;51.622;7.046;2023-04-15T05:05:35;2.80;99.90
5118;DHT22;2578;51.622;7.046;2023-04-15T05:08:03;2.70;99.90
5118;DHT22;2578;51.622;7.046;2023-04-15T05:10:30;2.80;99.90
5118;DHT22;2578;51.622;7.046;2023-04-15T05:12:56;2.70;99.90
5118;DHT22;2578;51.622;7.046;2023-04-15T05:15:21;2.70;99.90
5118;DHT22;2578;51.622;7.046;2023-04-15T05:17:47;2.80;99.90
5118;DHT22;2578;51.622;7.046;2023-04-15T05:20:13;2.90;99.90
5118;DHT22;2578;51.622;7.046;2023-04-15T05:22:38;2.90;99.90
5118;DHT22;2578;51.622;7.046;2023-04-15T05:25:04;3.00;99.90
5118;DHT22;2578;51.622;7.046;2023-04-15T05:27:30;3.20;99.90
5118;DHT22;2578;51.622;7.046;2023-04-15T05:29:56;3.20;99.90
5118;DHT22;2578;51.622;7.046;2023-04-15T05:32:21;3.30;99.90
5118;DHT22;2578;51.622;7.046;2023-04-15T05:34:47;3.40;99.90
5118;DHT22;2578;51.622;7.046;2023-04-15T05:37:13;3.40;99.90
5118;DHT22;2578;51.622;7.046;2023-04-15T05:39:38;3.40;99.90
5118;DHT22;2578;51.622;7.046;2023-04-15T05:42:04;3.50;99.90
5118;DHT22;2578;51.622;7.046;2023-04-15T05:44:30;3.50;99.90
5118;DHT22;2578;51.622;7.046;2023-04-15T05:46:56;3.60;99.90
5118;DHT22;2578;51.622;7.046;2023-04-15T05:49:22;3.60;99.90
5118;DHT22;2578;51.622;7.046;2023-04-15T05:51:48;3.70;99.90
5118;DHT22;2578;51.622;7.046;2023-04-15T05:54:13;3.80;99.90
5118;DHT22;2578;51.622;7.046;2023-04-15T05:56:39;4.10;99.90
5118;DHT22;2578;51.622;7.046;2023-04-15T05:59:05;4.10;99.90
5118;DHT22;2578;51.622;7.046;2023-04-15T06:01:32;4.10;99.90
5118;DHT22;2578;51.622;7.046;2023-04-15T06:03:58;4.30;99.90
5118;DHT22;2578;51.622;7.046;2023-04-15T06:06:23;4.50;99.90
5118;DHT22;2578;51.622;7.046;2023-04-15T06:08:49;4.50;99.90
5118;DHT22;2578;51.622;7.046;2023-04-15T06:11:15;4.70;99.90
5118;DHT22;2578;51.622;7.046;2023-04-15T06:13:41;4.80;99.90
5118;DHT22;2578;51.622;7.046;2023-04-15T06:16:06;5.20;99.90
5118;DHT22;2578;51.622;7.046;2023-04-15T06:18:33;5.20;99.90
5118;DHT22;2578;51.622;7.046;2023-04-15T06:20:59;5.30;99.90
5118;DHT22;2578;51.622;7.046;2023-04-15T06:23:25;5.50;99.90
5118;DHT22;2578;51.622;7.046;2023-04-15T06:25:50;5.70;99.90
5118;DHT22;2578;51.622;7.046;2023-04-15T06:28:16;5.90;99.90
5118;DHT22;2578;51.622;7.046;2023-04-15T06:30:41;6.50;99.90
5118;DHT22;2578;51.622;7.046;2023-04-15T06:33:07;7.70;99.90
5118;DHT22;2578;51.622;7.046;2023-04-15T06:35:33;6.80;99.90
5118;DHT22;2578;51.622;7.046;2023-04-15T06:37:58;7.10;99.90
5118;DHT22;2578;51.622;7.046;2023-04-15T06:40:24;7.40;99.90
5118;DHT22;2578;51.622;7.046;2023-04-15T06:42:49;7.80;99.90
5118;DHT22;2578;51.622;7.046;2023-04-15T06:45:15;7.90;99.90
5118;DHT22;2578;51.622;7.046;2023-04-15T06:47:41;8.30;99.90
5118;DHT22;2578;51.622;7.046;2023-04-15T06:50:08;9.60;99.90
5118;DHT22;2578;51.622;7.046;2023-04-15T06:52:34;8.50;99.90
5118;DHT22;2578;51.622;7.046;2023-04-15T06:55:00;8.70;99.90
5118;DHT22;2578;51.622;7.046;2023-04-15T06:57:26;8.80;99.90
5118;DHT22;2578;51.622;7.046;2023-04-15T06:59:53;8.90;99.90
5118;DHT22;2578;51.622;7.046;2023-04-15T07:02:19;8.90;99.90
5118;DHT22;2578;51.622;7.046;2023-04-15T07:04:45;9.00;99.90
5118;DHT22;2578;51.622;7.046;2023-04-15T07:07:11;9.00;99.90
5118;DHT22;2578;51.622;7.046;2023-04-15T07:09:36;9.00;99.90
5118;DHT22;2578;51.622;7.046;2023-04-15T07:12:03;8.90;99.90
5118;DHT22;2578;51.622;7.046;2023-04-15T07:14:28;9.00;99.90
5118;DHT22;2578;51.622;7.046;2023-04-15T07:16:54;9.00;99.90
5118;DHT22;2578;51.622;7.046;2023-04-15T07:19:20;9.10;99.90
5118;DHT22;2578;51.622;7.046;2023-04-15T07:21:46;9.20;99.90
5118;DHT22;2578;51.622;7.046;2023-04-15T07:24:12;9.20;99.90
5118;DHT22;2578;51.622;7.046;2023-04-15T07:26:41;12.10;99.90
5118;DHT22;2578;51.622;7.046;2023-04-15T07:29:06;9.70;99.90
5118;DHT22;2578;51.622;7.046;2023-04-15T07:31:32;9.70;99.90
5118;DHT22;2578;51.622;7.046;2023-04-15T07:33:58;9.90;99.90
5118;DHT22;2578;51.622;7.046;2023-04-15T07:36:24;10.20;99.90
5118;DHT22;2578;51.622;7.046;2023-04-15T07:38:50;10.30;99.90
5118;DHT22;2578;51.622;7.046;2023-04-15T07:41:15;10.40;99.90
5118;DHT22;2578;51.622;7.046;2023-04-15T07:43:41;10.50;99.90
5118;DHT22;2578;51.622;7.046;2023-04-15T07:46:08;10.80;99.90
5118;DHT22;2578;51.622;7.046;2023-04-15T07:48:33;11.10;99.90
5118;DHT22;2578;51.622;7.046;2023-04-15T07:50:59;10.80;99.90
5118;DHT22;2578;51.622;7.046;2023-04-15T07:53:25;10.90;99.90
5118;DHT22;2578;51.622;7.046;2023-04-15T07:55:51;10.80;99.90
5118;DHT22;2578;51.622;7.046;2023-04-15T07:58:16;10.80;99.90
5118;DHT22;2578;51.622;7.046;2023-04-15T08:00:42;10.70;99.90
5118;DHT22;2578;51.622;7.046;2023-04-15T08:03:10;11.60;99.90
5118;DHT22;2578;51.622;7.046;2023-04-15T08:05:36;10.30;99.90
5118;DHT22;2578;51.622;7.046;2023-04-15T08:08:01;10.40;99.90
5118;DHT22;2578;51.622;7.046;2023-04-15T08:10:28;10.40;99.90
5118;DHT22;2578;51.622;7.046;2023-04-15T08:12:54;10.90;99.90
5118;DHT22;2578;51.622;7.046;2023-04-15T08:15:20;10.20;99.90
5118;DHT22;2578;51.622;7.046;2023-04-15T08:17:47;10.10;99.90
5118;DHT22;2578;51.622;7.046;2023-04-15T08:20:13;10.20;99.90
5118;DHT22;2578;51.622;7.046;2023-04-15T08:22:39;10.30;99.90
5118;DHT22;2578;51.622;7.046;2023-04-15T08:25:05;10.50;99.90
5118;DHT22;2578;51.622;7.046;2023-04-15T08:27:31;10.70;99.90
5118;DHT22;2578;51.622;7.046;2023-04-15T08:29:56;10.80;99.90
5118;DHT22;2578;51.622;7.046;2023-04-15T08:32:22;10.70;99.90
5118;DHT22;2578;51.622;7.046;2023-04-15T08:34:50;10.70;99.90
5118;DHT22;2578;51.622;7.046;2023-04-15T08:37:16;10.90;99.90
5118;DHT22;2578;51.622;7.046;2023-04-15T08:39:41;11.00;99.90
5118;DHT22;2578;51.622;7.046;2023-04-15T08:42:16;11.40;99.90
5118;DHT22;2578;51.622;7.046;2023-04-15T08:44:42;11.10;99.90
5118;DHT22;2578;51.622;7.046;2023-04-15T08:47:12;11.40;99.90
5118;DHT22;2578;51.622;7.046;2023-04-15T08:49:39;11.50;99.90
5118;DHT22;2578;51.622;7.046;2023-04-15T08:52:06;11.60;99.90
5118;DHT22;2578;51.622;7.046;2023-04-15T08:54:33;11.50;99.90
5118;DHT22;2578;51.622;7.046;2023-04-15T08:57:00;11.10;99.90
5118;DHT22;2578;51.622;7.046;2023-04-15T08:59:27;11.10;99.90
5118;DHT22;2578;51.622;7.046;2023-04-15T09:01:55;10.80;99.90
5118;DHT22;2578;51.622;7.046;2023-04-15T09:04:21;10.50;99.90
5118;DHT22;2578;51.622;7.046;2023-04-15T09:06:47;10.50;99.90
5118;DHT22;2578;51.622;7.046;2023-04-15T09:09:12;10.60;99.90
5118;DHT22;2578;51.622;7.046;2023-04-15T09:11:38;10.80;99.90
5118;DHT22;2578;51.622;7.046;2023-04-15T09:14:04;11.10;99.90
5118;DHT22;2578;51.622;7.046;2023-04-15T09:16:30;12.10;99.90
5118;DHT22;2578;51.622;7.046;2023-04-15T09:18:56;12.30;99.90
5118;DHT22;2578;51.622;7.046;2023-04-15T09:21:22;12.40;99.90
5118;DHT22;2578;51.622;7.046;2023-04-15T09:23:57;12.10;99.90
5118;DHT22;2578;51.622;7.046;2023-04-15T09:26:38;11.00;99.90
5118;DHT22;2578;51.622;7.046;2023-04-15T09:29:09;11.80;99.90
5118;DHT22;2578;51.622;7.046;2023-04-15T09:31:38;11.30;99.90
5118;DHT22;2578;51.622;7.046;2023-04-15T09:34:04;11.00;99.90
5118;DHT22;2578;51.622;7.046;2023-04-15T09:36:56;11.10;99.90
5118;DHT22;2578;51.622;7.046;2023-04-15T09:39:22;11.10;99.90
5118;DHT22;2578;51.622;7.046;2023-04-15T09:42:06;11.20;99.90
5118;DHT22;2578;51.622;7.046;2023-04-15T09:44:32;11.10;99.90
5118;DHT22;2578;51.622;7.046;2023-04-15T09:46:58;11.10;99.90
5118;DHT22;2578;51.622;7.046;2023-04-15T09:49:23;11.10;99.90
5118;DHT22;2578;51.622;7.046;2023-04-15T09:51:49;11.20;99.90
5118;DHT22;2578;51.622;7.046;2023-04-15T09:54:18;11.20;99.90
5118;DHT22;2578;51.622;7.046;2023-04-15T09:56:45;11.30;99.90
5118;DHT22;2578;51.622;7.046;2023-04-15T09:59:11;11.30;99.90
5118;DHT22;2578;51.622;7.046;2023-04-15T10:01:37;11.20;99.90
5118;DHT22;2578;51.622;7.046;2023-04-15T10:04:05;11.30;99.90
5118;DHT22;2578;51.622;7.046;2023-04-15T10:06:31;10.90;99.90
5118;DHT22;2578;51.622;7.046;2023-04-15T10:08:58;10.90;99.90
5118;DHT22;2578;51.622;7.046;2023-04-15T10:11:27;10.80;99.90
5118;DHT22;2578;51.622;7.046;2023-04-15T10:13:53;11.10;99.90
5118;DHT22;2578;51.622;7.046;2023-04-15T10:16:20;10.80;99.90
5118;DHT22;2578;51.622;7.046;2023-04-15T10:18:50;10.80;99.90
5118;DHT22;2578;51.622;7.046;2023-04-15T10:21:20;10.80;99.90
5118;DHT22;2578;51.622;7.046;2023-04-15T10:23:47;10.80;99.90
5118;DHT22;2578;51.622;7.046;2023-04-15T10:26:13;10.80;99.90
5118;DHT22;2578;51.622;7.046;2023-04-15T10:28:40;10.80;99.90
5118;DHT22;2578;51.622;7.046;2023-04-15T10:31:06;10.90;99.90
5118;DHT22;2578;51.622;7.046;2023-04-15T10:33:32;10.80;99.90
5118;DHT22;2578;51.622;7.046;2023-04-15T10:36:00;10.90;99.90
5118;DHT22;2578;51.622;7.046;2023-04-15T10:38:33;10.60;99.90
5118;DHT22;2578;51.622;7.046;2023-04-15T10:41:16;10.60;99.90
5118;DHT22;2578;51.622;7.046;2023-04-15T10:46:18;10.60;99.90
5118;DHT22;2578;51.622;7.046;2023-04-15T10:48:51;10.60;99.90
5118;DHT22;2578;51.622;7.046;2023-04-15T10:51:44;10.50;99.90
5118;DHT22;2578;51.622;7.046;2023-04-15T10:59:31;10.40;99.90
5118;DHT22;2578;51.622;7.046;2023-04-15T11:04:50;10.70;99.90
5118;DHT22;2578;51.622;7.046;2023-04-15T11:07:36;10.50;1.00
5118;DHT22;2578;51.622;7.046;2023-04-15T11:13:19;10.60;99.90
5118;DHT22;2578;51.622;7.046;2023-04-15T11:15:55;10.70;1.00
5118;DHT22;2578;51.622;7.046;2023-04-15T11:18:26;10.80;99.90
5118;DHT22;2578;51.622;7.046;2023-04-15T11:21:10;11.00;99.90
5118;DHT22;2578;51.622;7.046;2023-04-15T11:23:39;10.90;99.90
5118;DHT22;2578;51.622;7.046;2023-04-15T11:26:09;11.20;1.00
5118;DHT22;2578;51.622;7.046;2023-04-15T11:28:38;11.50;99.90
5118;DHT22;2578;51.622;7.046;2023-04-15T11:31:12;11.30;99.90
5118;DHT22;2578;51.622;7.046;2023-04-15T11:33:59;11.10;99.90
5118;DHT22;2578;51.622;7.046;2023-04-15T11:36:28;10.60;99.90
5118;DHT22;2578;51.622;7.046;2023-04-15T11:38:54;10.60;1.00
5118;DHT22;2578;51.622;7.046;2023-04-15T11:41:23;11.30;99.90
5118;DHT22;2578;51.622;7.046;2023-04-15T11:43:49;10.40;99.90
5118;DHT22;2578;51.622;7.046;2023-04-15T11:46:15;10.40;99.90
5118;DHT22;2578;51.622;7.046;2023-04-15T11:51:12;10.30;1.00
5118;DHT22;2578;51.622;7.046;2023-04-15T11:53:49;10.20;99.90
5118;DHT22;2578;51.622;7.046;2023-04-15T11:56:22;10.00;99.90
5118;DHT22;2578;51.622;7.046;2023-04-15T11:58:55;10.00;99.90
5118;DHT22;2578;51.622;7.046;2023-04-15T12:01:39;10.10;99.90
5118;DHT22;2578;51.622;7.046;2023-04-15T12:04:17;10.00;99.90
5118;DHT22;2578;51.622;7.046;2023-04-15T12:06:47;9.70;99.90
5118;DHT22;2578;51.622;7.046;2023-04-15T12:09:16;9.60;99.90
5118;DHT22;2578;51.622;7.046;2023-04-15T12:11:50;9.60;99.90
5118;DHT22;2578;51.622;7.046;2023-04-15T12:14:27;9.60;99.90
5118;DHT22;2578;51.622;7.046;2023-04-15T12:16:58;9.80;99.90
5118;DHT22;2578;51.622;7.046;2023-04-15T12:19:38;9.80;99.90
5118;DHT22;2578;51.622;7.046;2023-04-15T12:22:09;9.80;1.00
5118;DHT22;2578;51.622;7.046;2023-04-15T12:24:36;10.70;99.90
5118;DHT22;2578;51.622;7.046;2023-04-15T12:27:10;9.80;1.00
5118;DHT22;2578;51.622;7.046;2023-04-15T12:29:37;9.80;99.90
5118;DHT22;2578;51.622;7.046;2023-04-15T12:32:11;9.80;1.00
5118;DHT22;2578;51.622;7.046;2023-04-15T12:34:51;9.80;1.00
5118;DHT22;2578;51.622;7.046;2023-04-15T12:37:17;9.90;99.90
5118;DHT22;2578;51.622;7.046;2023-04-15T12:39:44;10.10;99.90
5118;DHT22;2578;51.622;7.046;2023-04-15T12:42:10;10.10;1.00
5118;DHT22;2578;51.622;7.046;2023-04-15T12:44:37;11.00;21.10
5118;DHT22;2578;51.622;7.046;2023-04-15T12:47:03;10.30;99.90
5118;DHT22;2578;51.622;7.046;2023-04-15T12:49:30;10.30;99.90
5118;DHT22;2578;51.622;7.046;2023-04-15T12:51:57;10.90;99.90
5118;DHT22;2578;51.622;7.046;2023-04-15T12:54:24;10.80;99.90
5118;DHT22;2578;51.622;7.046;2023-04-15T12:56:52;10.30;99.90
5118;DHT22;2578;51.622;7.046;2023-04-15T12:59:18;10.30;1.00
5118;DHT22;2578;51.622;7.046;2023-04-15T13:01:45;12.00;99.90
5118;DHT22;2578;51.622;7.046;2023-04-15T13:04:11;10.00;1.00
5118;DHT22;2578;51.622;7.046;2023-04-15T13:06:37;9.90;1.00
5118;DHT22;2578;51.622;7.046;2023-04-15T13:09:03;9.90;1.00
5118;DHT22;2578;51.622;7.046;2023-04-15T13:11:29;9.80;99.90
5118;DHT22;2578;51.622;7.046;2023-04-15T13:14:00;9.90;99.90
5118;DHT22;2578;51.622;7.046;2023-04-15T13:16:26;10.10;99.90
5118;DHT22;2578;51.622;7.046;2023-04-15T13:18:52;10.00;1.00
5118;DHT22;2578;51.622;7.046;2023-04-15T13:21:18;10.10;99.90
5118;DHT22;2578;51.622;7.046;2023-04-15T13:23:44;10.10;99.90
5118;DHT22;2578;51.622;7.046;2023-04-15T13:26:09;10.00;99.90
5118;DHT22;2578;51.622;7.046;2023-04-15T13:28:35;10.00;99.90
5118;DHT22;2578;51.622;7.046;2023-04-15T13:31:01;9.90;99.90
5118;DHT22;2578;51.622;7.046;2023-04-15T13:33:27;9.70;99.90
5118;DHT22;2578;51.622;7.046;2023-04-15T13:35:53;9.70;1.00
5118;DHT22;2578;51.622;7.046;2023-04-15T13:38:18;9.70;12.20
5118;DHT22;2578;51.622;7.046;2023-04-15T13:40:44;10.20;99.90
5118;DHT22;2578;51.622;7.046;2023-04-15T13:43:10;9.60;1.00
5118;DHT22;2578;51.622;7.046;2023-04-15T13:45:36;10.40;99.90
5118;DHT22;2578;51.622;7.046;2023-04-15T13:48:02;9.60;99.90
5118;DHT22;2578;51.622;7.046;2023-04-15T13:50:28;9.60;50.00
5118;DHT22;2578;51.622;7.046;2023-04-15T13:52:53;9.60;99.90
5118;DHT22;2578;51.622;7.046;2023-04-15T13:55:19;9.60;99.90
5118;DHT22;2578;51.622;7.046;2023-04-15T13:57:44;9.70;1.00
5118;DHT22;2578;51.622;7.046;2023-04-15T14:00:11;9.60;1.00
5118;DHT22;2578;51.622;7.046;2023-04-15T14:02:36;9.50;1.00
5118;DHT22;2578;51.622;7.046;2023-04-15T14:05:02;9.70;99.90
5118;DHT22;2578;51.622;7.046;2023-04-15T14:07:28;9.40;1.00
5118;DHT22;2578;51.622;7.046;2023-04-15T14:09:55;9.40;99.90
5118;DHT22;2578;51.622;7.046;2023-04-15T14:12:21;9.30;1.00
5118;DHT22;2578;51.622;7.046;2023-04-15T14:14:46;9.30;99.90
5118;DHT22;2578;51.622;7.046;2023-04-15T14:17:12;9.20;99.90
5118;DHT22;2578;51.622;7.046;2023-04-15T14:19:38;9.20;42.60
5118;DHT22;2578;51.622;7.046;2023-04-15T14:22:04;9.10;1.00
5118;DHT22;2578;51.622;7.046;2023-04-15T14:24:30;9.10;14.80
5118;DHT22;2578;51.622;7.046;2023-04-15T14:26:55;9.10;97.40
5118;DHT22;2578;51.622;7.046;2023-04-15T14:29:21;9.10;99.90
5118;DHT22;2578;51.622;7.046;2023-04-15T14:31:47;9.10;99.90
5118;DHT22;2578;51.622;7.046;2023-04-15T14:34:14;9.10;99.90
5118;DHT22;2578;51.622;7.046;2023-04-15T14:36:40;9.10;99.90
5118;DHT22;2578;51.622;7.046;2023-04-15T14:39:06;9.10;99.90
5118;DHT22;2578;51.622;7.046;2023-04-15T14:41:33;9.10;99.90
5118;DHT22;2578;51.622;7.046;2023-04-15T14:43:58;9.00;99.90
5118;DHT22;2578;51.622;7.046;2023-04-15T14:46:25;9.00;99.90
5118;DHT22;2578;51.622;7.046;2023-04-15T14:48:50;9.00;99.90
5118;DHT22;2578;51.622;7.046;2023-04-15T14:51:16;9.00;52.40
5118;DHT22;2578;51.622;7.046;2023-04-15T14:53:42;9.00;1.00
5118;DHT22;2578;51.622;7.046;2023-04-15T14:56:08;9.00;1.00
5118;DHT22;2578;51.622;7.046;2023-04-15T14:58:34;9.80;99.90
5118;DHT22;2578;51.622;7.046;2023-04-15T15:01:00;9.20;71.00
5118;DHT22;2578;51.622;7.046;2023-04-15T15:03:27;9.00;1.00
5118;DHT22;2578;51.622;7.046;2023-04-15T15:05:53;9.80;1.00
5118;DHT22;2578;51.622;7.046;2023-04-15T15:08:18;8.90;1.00
5118;DHT22;2578;51.622;7.046;2023-04-15T15:10:44;11.20;1.00
5118;DHT22;2578;51.622;7.046;2023-04-15T15:13:10;9.00;1.00
5118;DHT22;2578;51.622;7.046;2023-04-15T15:15:36;10.40;1.00
5118;DHT22;2578;51.622;7.046;2023-04-15T15:18:03;8.90;99.90
5118;DHT22;2578;51.622;7.046;2023-04-15T15:20:29;8.90;1.00
5118;DHT22;2578;51.622;7.046;2023-04-15T15:22:55;8.90;99.90
5118;DHT22;2578;51.622;7.046;2023-04-15T15:25:20;8.90;99.90
5118;DHT22;2578;51.622;7.046;2023-04-15T15:27:47;8.80;99.90
5118;DHT22;2578;51.622;7.046;2023-04-15T15:30:13;8.90;99.90
5118;DHT22;2578;51.622;7.046;2023-04-15T15:32:40;8.90;1.00
5118;DHT22;2578;51.622;7.046;2023-04-15T15:35:06;8.90;1.00
5118;DHT22;2578;51.622;7.046;2023-04-15T15:37:32;8.80;1.00
5118;DHT22;2578;51.622;7.046;2023-04-15T15:39:58;9.10;1.00
5118;DHT22;2578;51.622;7.046;2023-04-15T15:42:25;10.20;99.90
5118;DHT22;2578;51.622;7.046;2023-04-15T15:44:51;8.80;99.90
5118;DHT22;2578;51.622;7.046;2023-04-15T15:47:17;8.80;99.90
5118;DHT22;2578;51.622;7.046;2023-04-15T15:49:43;8.70;1.00
5118;DHT22;2578;51.622;7.046;2023-04-15T15:52:10;8.80;99.90
5118;DHT22;2578;51.622;7.046;2023-04-15T15:54:35;8.80;99.90
5118;DHT22;2578;51.622;7.046;2023-04-15T15:57:02;8.70;1.00
5118;DHT22;2578;51.622;7.046;2023-04-15T15:59:28;8.80;1.00
5118;DHT22;2578;51.622;7.046;2023-04-15T16:01:54;8.80;99.90
5118;DHT22;2578;51.622;7.046;2023-04-15T16:04:19;8.80;99.90
5118;DHT22;2578;51.622;7.046;2023-04-15T16:06:45;8.70;99.90
5118;DHT22;2578;51.622;7.046;2023-04-15T16:09:11;8.70;99.90
5118;DHT22;2578;51.622;7.046;2023-04-15T16:11:37;9.70;1.00
5118;DHT22;2578;51.622;7.046;2023-04-15T16:14:03;8.70;1.00
5118;DHT22;2578;51.622;7.046;2023-04-15T16:16:29;8.70;1.00
5118;DHT22;2578;51.622;7.046;2023-04-15T16:18:56;9.90;1.00
5118;DHT22;2578;51.622;7.046;2023-04-15T16:21:22;8.70;99.90
5118;DHT22;2578;51.622;7.046;2023-04-15T16:23:49;8.70;99.90
5118;DHT22;2578;51.622;7.046;2023-04-15T16:26:15;8.70;99.90
5118;DHT22;2578;51.622;7.046;2023-04-15T16:28:41;8.70;99.90